createdAt,value
2023-03-02T00:01:33.107Z,-2.58
2023-03-02T00:04:02.308Z,-2.63
2023-03-02T00:06:31.478Z,-2.72
2023-03-02T00:09:02.463Z,-2.74
2023-03-02T00:11:31.597Z,-2.63
2023-03-02T00:13:58.731Z,-2.78
2023-03-02T00:16:25.483Z,-2.84
2023-03-02T00:18:52.187Z,-2.69
2023-03-02T00:21:18.758Z,-2.84
2023-03-02T00:23:45.467Z,-2.84
2023-03-02T00:26:12.107Z,-3.01
2023-03-02T00:28:38.777Z,-2.99
2023-03-02T00:31:06.726Z,-2.92
2023-03-02T00:33:34.354Z,-3.07
2023-03-02T00:36:02.066Z,-3.19
2023-03-02T00:38:28.859Z,-3.40
2023-03-02T00:40:56.334Z,-3.42
2023-03-02T00:43:28.097Z,-3.39
2023-03-02T00:45:55.328Z,-3.40
2023-03-02T00:48:22.384Z,-3.44
2023-03-02T00:50:49.000Z,-3.46
2023-03-02T00:53:15.672Z,-3.36
2023-03-02T00:55:42.233Z,-3.00
2023-03-02T00:58:08.833Z,-3.00
2023-03-02T01:00:37.931Z,-3.17
2023-03-02T01:03:04.583Z,-3.25
2023-03-02T01:05:31.248Z,-3.20
2023-03-02T01:07:57.947Z,-3.17
2023-03-02T01:10:24.527Z,-3.16
2023-03-02T01:12:51.125Z,-3.08
2023-03-02T01:15:17.763Z,-3.06
2023-03-02T01:17:44.346Z,-2.87
2023-03-02T01:20:12.696Z,-3.00
2023-03-02T01:22:39.464Z,-2.99
2023-03-02T01:25:06.919Z,-2.89
2023-03-02T01:27:33.537Z,-2.98
2023-03-02T01:30:00.218Z,-2.77
2023-03-02T01:32:27.060Z,-2.72
2023-03-02T01:34:53.637Z,-2.79
2023-03-02T01:37:20.937Z,-2.90
2023-03-02T01:39:47.527Z,-2.65
2023-03-02T01:42:14.217Z,-2.70
2023-03-02T01:44:46.666Z,-2.76
2023-03-02T01:47:32.474Z,-2.82
2023-03-02T01:50:00.278Z,-2.73
2023-03-02T01:52:29.455Z,-2.57
2023-03-02T01:55:01.970Z,-2.61
2023-03-02T01:57:32.775Z,-2.45
2023-03-02T02:00:10.474Z,-1.92
2023-03-02T02:02:37.112Z,-1.81
2023-03-02T02:05:04.317Z,-2.03
2023-03-02T02:07:31.380Z,-1.85
2023-03-02T02:09:58.796Z,-1.93
2023-03-02T02:12:26.754Z,-1.90
2023-03-02T02:14:55.144Z,-2.03
2023-03-02T02:17:22.326Z,-1.91
2023-03-02T02:20:19.648Z,-1.76
2023-03-02T02:22:59.369Z,-1.81
2023-03-02T02:25:53.047Z,-1.65
2023-03-02T02:28:28.102Z,-1.40
2023-03-02T02:31:10.960Z,-1.19
2023-03-02T02:33:39.428Z,-1.05
2023-03-02T02:36:12.991Z,-0.92
2023-03-02T02:38:40.774Z,-0.96
2023-03-02T02:41:15.120Z,-0.99
2023-03-02T02:43:42.028Z,-0.99
2023-03-02T02:46:11.788Z,-1.07
2023-03-02T02:48:38.566Z,-1.16
2023-03-02T02:51:08.904Z,-1.43
2023-03-02T02:53:44.629Z,-1.59
2023-03-02T02:56:13.109Z,-1.29
2023-03-02T02:58:53.693Z,-1.56
2023-03-02T03:01:26.350Z,-1.55
2023-03-02T03:04:02.320Z,-1.59
2023-03-02T03:06:42.324Z,-1.35
2023-03-02T03:09:11.282Z,-1.33
2023-03-02T03:11:41.574Z,-1.59
2023-03-02T03:14:17.875Z,-1.58
2023-03-02T03:16:46.683Z,-1.83
2023-03-02T03:19:22.454Z,-1.94
2023-03-02T03:21:52.171Z,-1.74
2023-03-02T03:24:18.921Z,-1.78
2023-03-02T03:26:45.607Z,-1.96
2023-03-02T03:29:13.657Z,-2.24
2023-03-02T03:31:40.402Z,-2.29
2023-03-02T03:34:07.122Z,-2.49
2023-03-02T03:36:34.410Z,-2.70
2023-03-02T03:39:02.353Z,-2.80
2023-03-02T03:41:28.950Z,-2.91
2023-03-02T03:43:55.647Z,-3.03
2023-03-02T03:46:22.462Z,-3.16
2023-03-02T03:48:49.222Z,-3.31
2023-03-02T03:51:16.027Z,-3.15
2023-03-02T03:53:42.608Z,-3.15
2023-03-02T03:56:09.890Z,-3.23
2023-03-02T03:58:36.587Z,-3.41
2023-03-02T04:01:04.019Z,-3.43
2023-03-02T04:03:31.682Z,-3.50
2023-03-02T04:05:58.306Z,-3.56
2023-03-02T04:08:24.874Z,-3.61
2023-03-02T04:10:51.521Z,-3.68
2023-03-02T04:13:18.138Z,-3.76
2023-03-02T04:15:46.947Z,-3.80
2023-03-02T04:18:13.765Z,-3.83
2023-03-02T04:20:40.434Z,-3.75
2023-03-02T04:23:07.150Z,-3.87
2023-03-02T04:25:33.780Z,-4.01
2023-03-02T04:28:00.510Z,-3.85
2023-03-02T04:30:27.644Z,-3.92
2023-03-02T04:32:54.719Z,-3.98
2023-03-02T04:35:21.533Z,-4.01
2023-03-02T04:37:48.228Z,-3.91
2023-03-02T04:40:17.429Z,-4.02
2023-03-02T04:42:44.817Z,-4.09
2023-03-02T04:45:12.985Z,-4.01
2023-03-02T04:47:40.069Z,-4.07
2023-03-02T04:50:08.238Z,-3.96
2023-03-02T04:52:35.238Z,-3.92
2023-03-02T04:55:02.068Z,-3.94
2023-03-02T04:57:28.646Z,-4.14
2023-03-02T04:59:55.252Z,-4.15
2023-03-02T05:02:22.535Z,-3.87
2023-03-02T05:04:49.193Z,-3.69
2023-03-02T05:07:15.835Z,-3.56
2023-03-02T05:09:42.562Z,-3.63
2023-03-02T05:12:09.175Z,-3.68
2023-03-02T05:14:35.885Z,-3.60
2023-03-02T05:17:02.485Z,-3.46
2023-03-02T05:19:29.232Z,-3.68
2023-03-02T05:21:56.580Z,-3.65
2023-03-02T05:24:23.194Z,-3.69
2023-03-02T05:26:49.814Z,-3.64
2023-03-02T05:29:16.449Z,-3.69
2023-03-02T05:31:44.996Z,-3.74
2023-03-02T05:34:13.798Z,-3.73
2023-03-02T05:36:40.768Z,-3.61
2023-03-02T05:39:08.671Z,-3.74
2023-03-02T05:41:37.027Z,-3.64
2023-03-02T05:44:04.369Z,-3.50
2023-03-02T05:46:31.524Z,-3.50
2023-03-02T05:48:58.415Z,-3.33
2023-03-02T05:51:25.079Z,-3.20
2023-03-02T05:53:51.667Z,-3.18
2023-03-02T05:56:20.395Z,-3.23
2023-03-02T05:58:47.013Z,-3.17
2023-03-02T06:01:15.383Z,-3.09
2023-03-02T06:03:43.394Z,-2.89
2023-03-02T06:06:14.036Z,-2.59
2023-03-02T06:08:42.167Z,-2.52
2023-03-02T06:11:09.477Z,-2.46
2023-03-02T06:13:36.995Z,-2.47
2023-03-02T06:16:04.226Z,-2.37
2023-03-02T06:18:31.198Z,-2.35
2023-03-02T06:20:57.823Z,-2.15
2023-03-02T06:23:24.435Z,-1.86
2023-03-02T06:25:51.367Z,-1.75
2023-03-02T06:28:21.910Z,-1.64
2023-03-02T06:30:48.750Z,-1.45
2023-03-02T06:33:18.123Z,-1.13
2023-03-02T06:35:45.618Z,-0.85
2023-03-02T06:38:12.372Z,-0.70
2023-03-02T06:40:39.242Z,-0.49
2023-03-02T06:43:05.890Z,-0.17
2023-03-02T06:45:34.033Z,0.03
2023-03-02T06:48:01.640Z,0.05
2023-03-02T06:50:28.757Z,0.21
2023-03-02T06:52:55.408Z,0.56
2023-03-02T06:55:22.031Z,0.63
2023-03-02T06:57:48.733Z,0.81
2023-03-02T07:00:17.587Z,1.11
2023-03-02T07:02:45.311Z,1.37
2023-03-02T07:05:12.757Z,1.44
2023-03-02T07:07:39.609Z,1.64
2023-03-02T07:10:07.477Z,1.88
2023-03-02T07:12:34.363Z,2.10
2023-03-02T07:15:01.082Z,2.31
2023-03-02T07:17:28.107Z,2.54
2023-03-02T07:19:54.808Z,2.88
2023-03-02T07:22:21.860Z,3.52
2023-03-02T07:24:48.474Z,4.18
2023-03-02T07:27:15.126Z,5.00
2023-03-02T07:29:41.739Z,5.41
2023-03-02T07:32:10.204Z,6.36
2023-03-02T07:34:38.696Z,6.35
2023-03-02T07:37:07.831Z,6.00
2023-03-02T07:39:34.563Z,5.39
2023-03-02T07:42:03.048Z,6.08
2023-03-02T07:44:30.131Z,6.00
2023-03-02T07:46:56.990Z,7.31
2023-03-02T07:49:23.755Z,8.00
2023-03-02T07:51:50.445Z,9.13
2023-03-02T07:54:17.131Z,9.35
2023-03-02T07:56:44.687Z,10.05
2023-03-02T07:59:14.578Z,11.62
2023-03-02T08:01:41.231Z,11.51
2023-03-02T08:04:07.950Z,11.86
2023-03-02T08:06:34.514Z,12.43
2023-03-02T08:09:05.123Z,12.19
2023-03-02T08:11:32.309Z,12.42
2023-03-02T08:14:03.148Z,12.78
2023-03-02T08:16:30.315Z,14.24
2023-03-02T08:18:59.665Z,14.94
2023-03-02T08:21:27.615Z,12.77
2023-03-02T08:23:54.363Z,13.67
2023-03-02T08:26:21.695Z,14.21
2023-03-02T08:28:48.708Z,12.61
2023-03-02T08:31:15.667Z,12.92
2023-03-02T08:33:43.421Z,11.27
2023-03-02T08:36:14.534Z,11.22
2023-03-02T08:38:41.538Z,11.24
2023-03-02T08:41:12.825Z,10.28
2023-03-02T08:43:39.796Z,10.83
2023-03-02T08:46:07.463Z,11.16
2023-03-02T08:48:34.383Z,11.28
2023-03-02T08:51:05.770Z,12.64
2023-03-02T08:53:35.497Z,11.70
2023-03-02T08:56:02.276Z,12.05
2023-03-02T08:58:29.340Z,12.67
2023-03-02T09:00:56.029Z,12.31
2023-03-02T09:03:22.765Z,13.03
2023-03-02T09:05:49.475Z,12.89
2023-03-02T09:08:16.054Z,12.39
2023-03-02T09:10:42.751Z,14.44
2023-03-02T09:13:09.445Z,12.47
2023-03-02T09:15:36.110Z,13.25
2023-03-02T09:18:02.782Z,12.83
2023-03-02T09:20:29.490Z,12.43
2023-03-02T09:22:56.170Z,13.07
2023-03-02T09:25:22.814Z,13.24
2023-03-02T09:27:49.519Z,14.13
2023-03-02T09:30:16.385Z,15.06
2023-03-02T09:32:43.951Z,11.84
2023-03-02T09:35:11.115Z,13.66
2023-03-02T09:37:38.978Z,13.09
2023-03-02T09:40:15.722Z,14.55
2023-03-02T09:43:08.357Z,14.34
2023-03-02T09:45:47.258Z,12.47
2023-03-02T09:48:31.779Z,14.28
2023-03-02T09:51:41.906Z,14.22
2023-03-02T09:54:27.126Z,14.25
2023-03-02T09:56:57.377Z,14.52
2023-03-02T09:59:42.037Z,14.80
2023-03-02T10:02:23.882Z,14.88
2023-03-02T10:05:00.854Z,14.84
2023-03-02T10:07:31.234Z,16.85
2023-03-02T10:10:07.044Z,16.00
2023-03-02T10:13:02.914Z,15.33
2023-03-02T10:15:52.713Z,17.40
2023-03-02T10:18:21.107Z,14.62
2023-03-02T10:20:56.462Z,14.95
2023-03-02T10:23:31.377Z,16.91
2023-03-02T10:26:29.447Z,18.15
2023-03-02T10:29:06.276Z,16.72
2023-03-02T10:31:33.824Z,15.56
2023-03-02T10:34:01.238Z,15.94
2023-03-02T10:36:31.054Z,16.51
2023-03-02T10:39:00.442Z,18.08
2023-03-02T10:41:41.209Z,17.11
2023-03-02T10:44:20.221Z,17.28
2023-03-02T10:46:47.149Z,18.50
2023-03-02T10:49:35.001Z,18.32
2023-03-02T10:52:01.563Z,17.45
2023-03-02T10:54:30.416Z,17.28
2023-03-02T10:57:05.889Z,16.94
2023-03-02T10:59:41.088Z,17.99
2023-03-02T11:02:23.111Z,16.95
2023-03-02T11:04:59.143Z,17.77
2023-03-02T11:07:28.592Z,16.77
2023-03-02T11:10:03.555Z,17.98
2023-03-02T11:12:32.699Z,18.45
2023-03-02T11:15:24.130Z,18.48
2023-03-02T11:18:06.162Z,17.87
2023-03-02T11:20:47.243Z,15.98
2023-03-02T11:23:23.744Z,17.11
2023-03-02T11:25:58.580Z,16.32
2023-03-02T11:28:34.407Z,16.75
2023-03-02T11:31:04.560Z,18.55
2023-03-02T11:33:52.154Z,16.44
2023-03-02T11:36:24.778Z,16.78
2023-03-02T11:38:55.324Z,15.97
2023-03-02T11:41:29.915Z,16.29
2023-03-02T11:44:01.771Z,16.08
2023-03-02T11:46:31.107Z,17.07
2023-03-02T11:49:03.573Z,17.40
2023-03-02T11:51:37.756Z,15.58
2023-03-02T11:54:21.506Z,15.02
2023-03-02T11:56:48.196Z,16.09
2023-03-02T11:59:21.042Z,15.17
2023-03-02T12:01:51.664Z,16.51
2023-03-02T12:04:36.399Z,17.19
2023-03-02T12:07:23.251Z,15.22
2023-03-02T12:10:06.020Z,15.66
2023-03-02T12:12:57.760Z,15.28
2023-03-02T12:15:29.312Z,14.32
2023-03-02T12:17:56.015Z,14.90
2023-03-02T12:20:30.058Z,16.62
2023-03-02T12:23:21.868Z,16.59
2023-03-02T12:25:51.646Z,16.96
2023-03-02T12:28:37.693Z,16.62
2023-03-02T12:31:13.515Z,16.40
2023-03-02T12:33:52.426Z,15.85
2023-03-02T12:36:32.373Z,15.86
2023-03-02T12:39:21.394Z,16.14
2023-03-02T12:42:08.509Z,16.90
2023-03-02T12:44:44.563Z,17.12
2023-03-02T12:47:16.513Z,18.32
2023-03-02T12:50:27.453Z,15.90
2023-03-02T12:53:20.336Z,16.45
2023-03-02T12:55:46.970Z,16.83
2023-03-02T12:58:27.710Z,16.29
2023-03-02T13:01:00.621Z,16.45
2023-03-02T13:03:30.000Z,16.67
2023-03-02T13:06:14.432Z,15.47
2023-03-02T13:08:45.118Z,16.08
2023-03-02T13:11:12.283Z,15.97
2023-03-02T13:13:42.695Z,14.22
2023-03-02T13:16:18.592Z,16.19
2023-03-02T13:18:45.898Z,15.24
2023-03-02T13:21:14.928Z,14.48
2023-03-02T13:23:51.482Z,14.73
2023-03-02T13:26:57.408Z,14.88
2023-03-02T13:29:27.577Z,14.57
2023-03-02T13:31:55.136Z,15.12
2023-03-02T13:34:27.777Z,14.84
2023-03-02T13:36:57.329Z,14.57
2023-03-02T13:39:31.708Z,13.99
2023-03-02T13:42:03.350Z,14.21
2023-03-02T13:44:35.238Z,14.62
2023-03-02T13:47:02.952Z,15.39
2023-03-02T13:49:37.616Z,15.78
2023-03-02T13:52:08.407Z,14.83
2023-03-02T13:54:37.454Z,14.91
2023-03-02T13:57:05.829Z,14.45
2023-03-02T13:59:36.424Z,14.60
2023-03-02T14:02:03.413Z,15.21
2023-03-02T14:04:30.180Z,15.11
2023-03-02T14:06:56.922Z,13.65
2023-03-02T14:09:23.585Z,13.15
2023-03-02T14:11:53.345Z,14.32
2023-03-02T14:14:23.874Z,14.15
2023-03-02T14:16:51.173Z,13.76
2023-03-02T14:19:18.662Z,13.69
2023-03-02T14:21:46.353Z,13.37
2023-03-02T14:24:12.993Z,13.07
2023-03-02T14:26:46.397Z,13.37
2023-03-02T14:29:18.896Z,12.60
2023-03-02T14:31:48.550Z,12.46
2023-03-02T14:34:18.320Z,12.84
2023-03-02T14:36:47.627Z,12.42
2023-03-02T14:39:38.584Z,12.34
2023-03-02T14:42:10.043Z,12.48
2023-03-02T14:44:36.678Z,12.34
2023-03-02T14:47:03.556Z,11.82
2023-03-02T14:49:30.174Z,11.45
2023-03-02T14:52:17.398Z,11.49
2023-03-02T14:54:49.285Z,11.18
2023-03-02T14:57:20.301Z,11.27
2023-03-02T14:59:49.401Z,11.13
2023-03-02T15:02:25.645Z,11.04
2023-03-02T15:04:56.007Z,10.99
2023-03-02T15:07:24.690Z,11.00
2023-03-02T15:09:51.320Z,10.98
2023-03-02T15:12:18.348Z,10.98
2023-03-02T15:14:44.926Z,10.85
2023-03-02T15:17:11.555Z,10.71
2023-03-02T15:19:40.866Z,10.57
2023-03-02T15:22:07.604Z,10.57
2023-03-02T15:24:34.241Z,10.53
2023-03-02T15:27:00.872Z,10.46
2023-03-02T15:29:27.539Z,10.39
2023-03-02T15:31:56.577Z,10.30
2023-03-02T15:34:23.349Z,10.30
2023-03-02T15:36:49.957Z,10.30
2023-03-02T15:39:17.092Z,10.30
2023-03-02T15:41:43.924Z,10.17
2023-03-02T15:44:24.636Z,10.13
2023-03-02T15:46:55.761Z,10.01
2023-03-02T15:49:24.803Z,10.05
2023-03-02T15:51:52.178Z,9.88
2023-03-02T15:54:19.414Z,9.84
2023-03-02T15:56:49.610Z,9.73
2023-03-02T15:59:16.270Z,9.69
2023-03-02T16:01:42.864Z,9.63
2023-03-02T16:04:10.045Z,9.61
2023-03-02T16:06:36.650Z,9.50
2023-03-02T16:09:03.338Z,9.18
2023-03-02T16:11:29.951Z,8.87
2023-03-02T16:13:56.565Z,8.47
2023-03-02T16:16:23.345Z,8.38
2023-03-02T16:18:51.514Z,8.13
2023-03-02T16:21:18.539Z,7.96
2023-03-02T16:23:45.566Z,8.00
2023-03-02T16:26:15.682Z,8.19
2023-03-02T16:28:42.939Z,8.12
2023-03-02T16:31:14.362Z,7.86
2023-03-02T16:33:41.810Z,7.70
2023-03-02T16:36:09.639Z,7.65
2023-03-02T16:38:36.966Z,7.56
2023-03-02T16:41:19.209Z,7.37
2023-03-02T16:43:51.451Z,7.22
2023-03-02T16:46:19.126Z,7.06
2023-03-02T16:48:47.677Z,6.90
2023-03-02T16:51:14.732Z,6.85
2023-03-02T16:53:41.884Z,6.68
2023-03-02T16:56:08.952Z,6.50
2023-03-02T16:58:38.283Z,6.38
2023-03-02T17:01:06.267Z,6.20
2023-03-02T17:03:33.162Z,6.22
2023-03-02T17:06:00.042Z,5.87
2023-03-02T17:08:26.715Z,5.78
2023-03-02T17:10:53.454Z,5.44
2023-03-02T17:13:20.335Z,5.38
2023-03-02T17:15:46.980Z,5.03
2023-03-02T17:18:13.645Z,5.00
2023-03-02T17:20:40.685Z,4.86
2023-03-02T17:23:07.324Z,4.84
2023-03-02T17:25:33.950Z,4.86
2023-03-02T17:28:00.616Z,4.55
2023-03-02T17:30:27.319Z,4.40
2023-03-02T17:32:54.000Z,4.28
2023-03-02T17:35:22.124Z,4.14
2023-03-02T17:37:49.019Z,3.65
2023-03-02T17:40:16.667Z,3.42
2023-03-02T17:42:43.280Z,3.20
2023-03-02T17:45:18.123Z,3.13
2023-03-02T17:47:45.577Z,3.04
2023-03-02T17:50:13.957Z,2.87
2023-03-02T17:52:41.196Z,2.83
2023-03-02T17:55:09.012Z,2.68
2023-03-02T17:57:35.930Z,2.52
2023-03-02T18:00:07.564Z,2.48
2023-03-02T18:02:34.161Z,2.38
2023-03-02T18:05:00.976Z,2.21
2023-03-02T18:07:27.958Z,2.10
2023-03-02T18:09:54.560Z,2.13
2023-03-02T18:12:21.134Z,2.11
2023-03-02T18:14:47.939Z,2.09
2023-03-02T18:17:15.062Z,1.98
2023-03-02T18:19:41.703Z,1.95
2023-03-02T18:22:08.286Z,1.87
2023-03-02T18:24:34.888Z,1.71
2023-03-02T18:27:01.445Z,1.78
2023-03-02T18:29:28.104Z,1.70
2023-03-02T18:31:55.181Z,1.66
2023-03-02T18:34:21.807Z,1.54
2023-03-02T18:36:48.393Z,1.40
2023-03-02T18:39:15.461Z,1.34
2023-03-02T18:41:42.905Z,1.29
2023-03-02T18:44:10.149Z,1.13
2023-03-02T18:46:36.822Z,1.03
2023-03-02T18:49:04.515Z,1.15
2023-03-02T18:51:31.344Z,1.03
2023-03-02T18:53:58.062Z,1.12
2023-03-02T18:56:27.616Z,1.03
2023-03-02T18:58:54.503Z,1.11
2023-03-02T19:01:22.274Z,1.11
2023-03-02T19:03:49.181Z,1.08
2023-03-02T19:06:16.573Z,0.94
2023-03-02T19:08:43.539Z,0.87
2023-03-02T19:11:11.707Z,0.83
2023-03-02T19:13:38.408Z,0.82
2023-03-02T19:16:05.859Z,0.78
2023-03-02T19:18:33.255Z,0.80
2023-03-02T19:21:00.691Z,0.82
2023-03-02T19:23:27.644Z,0.80
2023-03-02T19:25:54.241Z,0.80
2023-03-02T19:28:21.796Z,0.67
2023-03-02T19:30:49.661Z,0.60
2023-03-02T19:33:16.952Z,0.61
2023-03-02T19:35:44.708Z,0.60
2023-03-02T19:38:12.790Z,0.55
2023-03-02T19:40:40.469Z,0.54
2023-03-02T19:43:07.353Z,0.57
2023-03-02T19:45:36.234Z,0.51
2023-03-02T19:48:05.846Z,0.43
2023-03-02T19:50:33.016Z,0.26
2023-03-02T19:52:59.640Z,0.30
2023-03-02T19:55:27.340Z,0.28
2023-03-02T19:58:00.053Z,0.17
2023-03-02T20:00:29.335Z,0.17
2023-03-02T20:02:56.561Z,0.15
2023-03-02T20:05:23.897Z,0.21
2023-03-02T20:07:50.510Z,0.19
2023-03-02T20:10:30.219Z,0.11
2023-03-02T20:13:01.895Z,0.23
2023-03-02T20:15:33.051Z,0.13
2023-03-02T20:18:02.598Z,0.17
2023-03-02T20:20:30.937Z,0.21
2023-03-02T20:22:58.781Z,0.14
2023-03-02T20:25:25.886Z,0.07
2023-03-02T20:27:52.979Z,0.03
2023-03-02T20:30:24.727Z,-0.04
2023-03-02T20:32:51.329Z,-0.10
2023-03-02T20:35:18.024Z,-0.24
2023-03-02T20:37:44.904Z,-0.33
2023-03-02T20:40:13.193Z,-0.19
2023-03-02T20:42:41.239Z,-0.30
2023-03-02T20:45:09.428Z,-0.28
2023-03-02T20:47:36.528Z,-0.41
2023-03-02T20:50:06.519Z,-0.41
2023-03-02T20:52:33.179Z,-0.38
2023-03-02T20:54:59.836Z,-0.41
2023-03-02T20:57:26.412Z,-0.38
2023-03-02T20:59:53.013Z,-0.44
2023-03-02T21:02:20.182Z,-0.38
2023-03-02T21:04:47.193Z,-0.39
2023-03-02T21:07:14.425Z,-0.51
2023-03-02T21:09:42.118Z,-0.43
2023-03-02T21:12:08.969Z,-0.64
2023-03-02T21:14:35.700Z,-0.63
2023-03-02T21:17:02.389Z,-0.69
2023-03-02T21:19:29.588Z,-0.77
2023-03-02T21:21:57.178Z,-0.79
2023-03-02T21:24:24.166Z,-0.77
2023-03-02T21:26:53.027Z,-0.86
2023-03-02T21:29:23.100Z,-0.93
2023-03-02T21:31:50.311Z,-0.96
2023-03-02T21:34:18.956Z,-0.99
2023-03-02T21:36:53.042Z,-0.97
2023-03-02T21:39:23.661Z,-1.07
2023-03-02T21:41:50.476Z,-1.10
2023-03-02T21:44:17.132Z,-1.16
2023-03-02T21:46:43.835Z,-1.12
2023-03-02T21:49:16.200Z,-1.01
2023-03-02T21:51:42.925Z,-1.09
2023-03-02T21:54:09.606Z,-1.05
2023-03-02T21:56:36.581Z,-1.11
2023-03-02T21:59:04.037Z,-1.16
2023-03-02T22:01:32.840Z,-1.15
2023-03-02T22:04:00.657Z,-1.20
2023-03-02T22:06:30.610Z,-1.29
2023-03-02T22:08:58.097Z,-1.28
2023-03-02T22:11:36.251Z,-1.12
2023-03-02T22:14:12.089Z,-0.83
2023-03-02T22:16:40.798Z,-0.91
2023-03-02T22:19:22.411Z,-0.56
2023-03-02T22:21:49.563Z,-0.71
2023-03-02T22:24:28.891Z,-0.81
2023-03-02T22:27:00.295Z,-0.68
2023-03-02T22:29:33.567Z,-0.98
2023-03-02T22:32:25.703Z,-1.04
2023-03-02T22:34:55.440Z,-1.18
2023-03-02T22:37:29.311Z,-1.22
2023-03-02T22:39:59.845Z,-0.93
2023-03-02T22:42:30.112Z,-1.21
2023-03-02T22:45:26.145Z,-1.30
2023-03-02T22:47:53.431Z,-1.14
2023-03-02T22:50:25.892Z,-1.24
2023-03-02T22:52:53.968Z,-1.32
2023-03-02T22:55:42.227Z,-1.29
2023-03-02T22:58:17.904Z,-1.30
2023-03-02T23:00:44.531Z,-1.32
2023-03-02T23:03:23.350Z,-1.07
2023-03-02T23:05:52.909Z,-1.19
2023-03-02T23:08:28.624Z,-1.31
2023-03-02T23:11:00.543Z,-1.26
2023-03-02T23:13:38.727Z,-1.29
2023-03-02T23:16:14.652Z,-1.10
2023-03-02T23:18:43.077Z,-1.03
2023-03-02T23:21:28.302Z,-1.03
2023-03-02T23:23:55.362Z,-1.27
2023-03-02T23:26:22.161Z,-1.30
2023-03-02T23:28:50.486Z,-1.29
2023-03-02T23:31:18.548Z,-1.30
2023-03-02T23:33:45.420Z,-1.40
2023-03-02T23:36:12.076Z,-1.36
2023-03-02T23:38:39.452Z,-1.18
2023-03-02T23:41:07.460Z,-1.20
2023-03-02T23:43:35.504Z,-1.07
2023-03-02T23:46:02.215Z,-0.87
2023-03-02T23:48:28.855Z,-0.75
2023-03-02T23:50:55.448Z,-0.69
2023-03-02T23:53:22.068Z,-0.65
2023-03-02T23:55:51.349Z,-0.76
2023-03-02T23:58:18.130Z,-0.80
